createdAt,value
2022-11-27T00:00:19.258Z,98214.00
2022-11-27T00:05:19.945Z,98200.00
2022-11-27T00:10:20.758Z,98188.00
2022-11-27T00:15:21.891Z,98182.00
2022-11-27T00:20:26.072Z,98183.00
2022-11-27T00:25:29.714Z,98183.00
2022-11-27T00:30:30.474Z,98177.00
2022-11-27T00:35:31.189Z,98175.00
2022-11-27T00:40:31.960Z,98175.00
2022-11-27T00:45:32.741Z,98164.00
2022-11-27T00:50:33.508Z,98158.00
2022-11-27T00:55:34.450Z,98158.00
2022-11-27T01:00:35.178Z,98165.00
2022-11-27T01:05:36.638Z,98161.00
2022-11-27T01:10:38.890Z,98155.00
2022-11-27T01:15:39.740Z,98155.00
2022-11-27T01:20:40.489Z,98158.00
2022-11-27T01:25:41.689Z,98162.00
2022-11-27T01:30:42.396Z,98152.00
2022-11-27T01:35:51.799Z,98152.00
2022-11-27T01:40:57.977Z,98158.00
2022-11-27T01:45:58.985Z,98148.00
2022-11-27T01:50:59.784Z,98148.00
2022-11-27T01:56:01.235Z,98145.00
2022-11-27T02:01:03.127Z,98150.00
2022-11-27T02:06:04.077Z,98157.00
2022-11-27T02:11:18.320Z,98154.00
2022-11-27T02:16:43.500Z,98147.00
2022-11-27T02:21:57.716Z,98135.00
2022-11-27T02:30:10.004Z,98122.00
2022-11-27T02:35:29.453Z,98106.00
2022-11-27T02:41:08.602Z,98092.00
2022-11-27T02:46:12.213Z,98089.00
2022-11-27T02:51:16.670Z,98096.00
2022-11-27T02:56:21.584Z,98091.00
2022-11-27T03:01:23.886Z,98097.00
2022-11-27T03:06:31.280Z,98088.00
2022-11-27T03:11:32.243Z,98073.00
2022-11-27T03:17:00.811Z,98071.00
2022-11-27T03:22:03.660Z,98053.00
2022-11-27T03:27:04.950Z,98060.00
2022-11-27T03:32:06.671Z,98062.00
2022-11-27T03:37:07.680Z,98051.00
2022-11-27T03:42:25.292Z,98035.00
2022-11-27T03:48:21.621Z,98040.00
2022-11-27T03:53:55.240Z,98039.00
2022-11-27T03:59:01.794Z,98038.00
2022-11-27T04:04:02.699Z,98034.00
2022-11-27T04:09:04.555Z,98020.00
2022-11-27T04:14:05.400Z,98009.00
2022-11-27T04:19:07.411Z,98005.00
2022-11-27T04:24:08.133Z,98006.00
2022-11-27T04:29:08.956Z,98008.00
2022-11-27T04:34:10.114Z,98001.00
2022-11-27T04:39:12.569Z,98007.00
2022-11-27T04:44:13.375Z,98002.00
2022-11-27T04:49:14.352Z,98012.00
2022-11-27T04:54:15.206Z,98011.00
2022-11-27T04:59:16.022Z,98006.00
2022-11-27T05:04:16.978Z,98010.00
2022-11-27T05:09:17.946Z,98008.00
2022-11-27T05:14:19.943Z,98007.00
2022-11-27T05:19:23.075Z,97991.00
2022-11-27T05:24:27.001Z,97996.00
2022-11-27T05:29:28.848Z,97999.00
2022-11-27T05:34:29.774Z,97990.00
2022-11-27T05:39:30.520Z,97991.00
2022-11-27T05:44:31.276Z,97987.00
2022-11-27T05:49:32.046Z,97963.00
2022-11-27T05:54:32.795Z,97962.00
2022-11-27T05:59:33.558Z,97959.00
2022-11-27T06:04:34.441Z,97956.00
2022-11-27T06:09:37.180Z,97948.00
2022-11-27T06:14:38.230Z,97939.00
2022-11-27T06:19:39.138Z,97937.00
2022-11-27T06:24:40.282Z,97927.00
2022-11-27T06:29:41.257Z,97930.00
2022-11-27T06:34:42.437Z,97941.00
2022-11-27T06:39:43.577Z,97944.00
2022-11-27T06:44:46.030Z,97940.00
2022-11-27T06:49:46.740Z,97929.00
2022-11-27T06:54:47.543Z,97925.00
2022-11-27T06:59:48.308Z,97923.00
2022-11-27T07:04:49.176Z,97919.00
2022-11-27T07:09:49.874Z,97905.00
2022-11-27T07:14:50.632Z,97897.00
2022-11-27T07:19:51.334Z,97866.00
2022-11-27T07:24:52.081Z,97897.00
2022-11-27T07:29:52.786Z,97887.00
2022-11-27T07:34:53.915Z,97900.00
2022-11-27T07:40:02.480Z,97897.00
2022-11-27T07:45:05.014Z,97885.00
2022-11-27T07:50:09.866Z,97888.00
2022-11-27T07:55:13.583Z,97881.00
2022-11-27T08:00:15.357Z,97875.00
2022-11-27T08:05:16.459Z,97863.00
2022-11-27T08:10:17.494Z,97868.00
2022-11-27T08:15:18.730Z,97876.00
2022-11-27T08:20:20.044Z,97876.00
2022-11-27T08:25:20.884Z,97878.00
2022-11-27T08:30:22.918Z,97869.00
2022-11-27T08:35:23.765Z,97862.00
2022-11-27T08:40:24.954Z,97862.00
2022-11-27T08:45:25.758Z,97854.00
2022-11-27T08:50:26.808Z,97846.00
2022-11-27T08:55:27.552Z,97853.00
2022-11-27T09:00:28.535Z,97841.00
2022-11-27T09:05:30.323Z,97843.00
2022-11-27T09:10:31.594Z,97833.00
2022-11-27T09:15:32.523Z,97826.00
2022-11-27T09:20:33.252Z,97827.00
2022-11-27T09:25:34.041Z,97813.00
2022-11-27T09:30:34.748Z,97823.00
2022-11-27T09:35:38.827Z,97822.00
2022-11-27T09:41:04.730Z,97825.00
2022-11-27T09:46:13.965Z,97822.00
2022-11-27T09:51:25.184Z,97815.00
2022-11-27T09:56:25.994Z,97800.00
2022-11-27T10:01:36.594Z,97816.00
2022-11-27T10:07:25.499Z,97788.00
2022-11-27T10:13:02.036Z,97773.00
2022-11-27T10:18:12.490Z,97785.00
2022-11-27T10:23:39.034Z,97767.00
2022-11-27T10:32:46.988Z,97755.00
2022-11-27T10:38:16.045Z,97741.00
2022-11-27T10:43:22.664Z,97758.00
2022-11-27T10:48:23.821Z,97741.00
2022-11-27T10:53:35.698Z,97736.00
2022-11-27T10:58:45.540Z,97719.00
2022-11-27T11:03:46.694Z,97722.00
2022-11-27T11:08:48.769Z,97708.00
2022-11-27T11:13:49.683Z,97700.00
2022-11-27T11:18:53.353Z,97698.00
2022-11-27T11:24:43.224Z,97690.00
2022-11-27T11:29:51.686Z,97686.00
2022-11-27T11:35:07.733Z,97683.00
2022-11-27T11:40:26.213Z,97661.00
2022-11-27T11:45:32.654Z,97672.00
2022-11-27T11:51:38.353Z,97654.00
2022-11-27T11:56:51.453Z,97647.00
2022-11-27T12:05:26.499Z,97645.00
2022-11-27T12:15:34.908Z,97622.00
2022-11-27T12:21:50.685Z,97618.00
2022-11-27T12:27:23.742Z,97597.00
2022-11-27T12:32:51.891Z,97599.00
2022-11-27T12:40:25.765Z,97605.00
2022-11-27T12:46:00.863Z,97589.00
2022-11-27T12:51:18.545Z,97578.00
2022-11-27T12:56:38.470Z,97567.00
2022-11-27T13:01:44.988Z,97554.00
2022-11-27T13:07:17.497Z,97556.00
2022-11-27T13:12:26.371Z,97567.00
2022-11-27T13:17:36.367Z,97556.00
2022-11-27T13:22:37.343Z,97544.00
2022-11-27T13:27:38.764Z,97541.00
2022-11-27T13:32:47.165Z,97533.00
2022-11-27T13:37:55.703Z,97520.00
2022-11-27T13:43:11.725Z,97486.00
2022-11-27T13:48:34.702Z,97464.00
2022-11-27T13:53:39.722Z,97448.00
2022-11-27T13:58:42.852Z,97436.00
2022-11-27T14:03:44.807Z,97436.00
2022-11-27T14:09:04.116Z,97417.00
2022-11-27T14:14:21.735Z,97410.00
2022-11-27T14:19:33.533Z,97409.00
2022-11-27T14:24:41.250Z,97416.00
2022-11-27T14:29:44.828Z,97417.00
2022-11-27T14:34:50.154Z,97402.00
2022-11-27T14:39:52.309Z,97404.00
2022-11-27T14:45:11.733Z,97398.00
2022-11-27T14:50:14.382Z,97387.00
2022-11-27T14:55:18.430Z,97394.00
2022-11-27T15:00:26.837Z,97393.00
2022-11-27T15:05:29.245Z,97380.00
2022-11-27T15:10:39.810Z,97389.00
2022-11-27T15:15:43.649Z,97396.00
2022-11-27T15:20:46.731Z,97373.00
2022-11-27T15:26:14.987Z,97374.00
2022-11-27T15:31:37.967Z,97388.00
2022-11-27T15:36:41.947Z,97368.00
2022-11-27T15:41:51.279Z,97362.00
2022-11-27T15:46:55.930Z,97343.00
2022-11-27T15:51:57.883Z,97346.00
2022-11-27T15:56:58.744Z,97360.00
2022-11-27T16:02:00.349Z,97357.00
2022-11-27T16:07:01.212Z,97364.00
2022-11-27T16:12:02.895Z,97359.00
2022-11-27T16:17:03.730Z,97350.00
2022-11-27T16:22:04.592Z,97343.00
2022-11-27T16:27:06.578Z,97333.00
2022-11-27T16:32:07.770Z,97326.00
2022-11-27T16:37:12.073Z,97319.00
2022-11-27T16:42:15.186Z,97300.00
2022-11-27T16:47:16.402Z,97307.00
2022-11-27T16:52:17.359Z,97292.00
2022-11-27T16:57:19.307Z,97287.00
2022-11-27T17:02:20.693Z,97285.00
2022-11-27T17:07:21.522Z,97271.00
2022-11-27T17:12:22.580Z,97257.00
2022-11-27T17:17:23.368Z,97261.00
2022-11-27T17:22:29.530Z,97249.00
2022-11-27T17:27:31.770Z,97245.00
2022-11-27T17:32:32.531Z,97241.00
2022-11-27T17:37:33.346Z,97222.00
2022-11-27T17:42:34.088Z,97226.00
2022-11-27T17:47:34.867Z,97220.00
2022-11-27T17:52:36.784Z,97208.00
2022-11-27T17:57:37.775Z,97197.00
2022-11-27T18:02:40.130Z,97198.00
2022-11-27T18:07:42.909Z,97194.00
2022-11-27T18:12:44.147Z,97179.00
2022-11-27T18:17:45.046Z,97170.00
2022-11-27T18:22:45.865Z,97162.00
2022-11-27T18:27:46.863Z,97144.00
2022-11-27T18:32:47.616Z,97126.00
2022-11-27T18:37:48.480Z,97125.00
2022-11-27T18:42:49.239Z,97148.00
2022-11-27T18:47:50.379Z,97137.00
2022-11-27T18:52:51.200Z,97129.00
2022-11-27T18:57:52.462Z,97111.00
2022-11-27T19:02:53.780Z,97112.00
2022-11-27T19:07:54.684Z,97113.00
2022-11-27T19:12:55.519Z,97111.00
2022-11-27T19:17:57.480Z,97105.00
2022-11-27T19:22:58.321Z,97109.00
2022-11-27T19:27:59.158Z,97092.00
2022-11-27T19:32:59.911Z,97092.00
2022-11-27T19:38:01.588Z,97089.00
2022-11-27T19:43:02.465Z,97083.00
2022-11-27T19:48:03.345Z,97092.00
2022-11-27T19:53:04.578Z,97087.00
2022-11-27T19:58:06.278Z,97064.00
2022-11-27T20:03:07.045Z,97066.00
2022-11-27T20:08:08.090Z,97072.00
2022-11-27T20:13:08.847Z,97064.00
2022-11-27T20:18:09.695Z,97054.00
2022-11-27T20:23:11.651Z,97045.00
2022-11-27T20:28:12.369Z,97069.00
2022-11-27T20:33:16.848Z,97066.00
2022-11-27T20:38:17.605Z,97049.00
2022-11-27T20:43:18.636Z,97037.00
2022-11-27T20:48:19.533Z,97030.00
2022-11-27T20:53:20.417Z,97023.00
2022-11-27T20:58:23.000Z,97012.00
2022-11-27T21:03:23.814Z,97023.00
2022-11-27T21:08:24.877Z,97015.00
2022-11-27T21:13:25.930Z,97014.00
2022-11-27T21:18:26.876Z,97006.00
2022-11-27T21:23:27.713Z,96982.00
2022-11-27T21:28:29.760Z,96989.00
2022-11-27T21:33:30.511Z,96968.00
2022-11-27T21:38:31.284Z,96975.00
2022-11-27T21:43:32.021Z,96977.00
2022-11-27T21:48:32.846Z,96983.00
2022-11-27T21:53:33.700Z,96984.00
2022-11-27T21:58:36.550Z,96974.00
2022-11-27T22:03:42.311Z,96984.00
2022-11-27T22:08:46.281Z,96975.00
2022-11-27T22:13:47.263Z,96964.00
2022-11-27T22:18:48.858Z,96951.00
2022-11-27T22:23:50.260Z,96963.00
2022-11-27T22:28:51.913Z,96957.00
2022-11-27T22:33:53.915Z,96948.00
2022-11-27T22:38:56.210Z,96941.00
2022-11-27T22:43:59.482Z,96947.00
2022-11-27T22:49:04.054Z,96941.00
2022-11-27T22:54:06.505Z,96916.00
2022-11-27T23:04:39.016Z,96915.00
2022-11-27T23:09:39.978Z,96916.00
2022-11-27T23:14:41.299Z,96902.00
2022-11-27T23:19:42.301Z,96903.00
2022-11-27T23:24:43.672Z,96910.00
2022-11-27T23:29:44.794Z,96894.00
2022-11-27T23:34:45.733Z,96886.00
2022-11-27T23:39:46.467Z,96887.00
2022-11-27T23:44:47.219Z,96871.00
2022-11-27T23:49:47.961Z,96871.00
2022-11-27T23:54:48.921Z,96867.00
2022-11-27T23:59:49.683Z,96883.00
